createdAt,value
2019-05-14T00:00:53.164Z,103359.11
2019-05-14T00:03:21.900Z,103356.88
2019-05-14T00:05:51.671Z,103353.86
2019-05-14T00:08:22.200Z,103354.94
2019-05-14T00:10:52.071Z,103356.38
2019-05-14T00:13:21.486Z,103356.59
2019-05-14T00:15:52.175Z,103360.62
2019-05-14T00:18:22.241Z,103356.94
2019-05-14T00:20:51.224Z,103357.66
2019-05-14T00:23:21.482Z,103365.51
2019-05-14T00:25:52.102Z,103365.19
2019-05-14T00:28:21.168Z,103354.85
2019-05-14T00:30:52.197Z,103358.14
2019-05-14T00:33:22.324Z,103009.39
2019-05-14T00:35:52.687Z,103357.34
2019-05-14T00:38:22.537Z,103362.25
2019-05-14T00:40:51.459Z,103355.77
2019-05-14T00:43:21.681Z,103351.28
2019-05-14T00:45:51.100Z,103347.05
2019-05-14T00:48:22.012Z,103347.58
2019-05-14T00:50:51.669Z,103341.50
2019-05-14T00:53:21.331Z,103321.16
2019-05-14T00:55:51.618Z,103349.34
2019-05-14T00:58:21.761Z,103354.06
2019-05-14T01:00:52.540Z,103350.22
2019-05-14T01:03:21.781Z,103353.25
2019-05-14T01:05:52.209Z,103355.36
2019-05-14T01:08:21.633Z,103360.92
2019-05-14T01:10:51.212Z,103352.86
2019-05-14T01:13:21.898Z,103352.05
2019-05-14T01:15:56.094Z,103354.58
2019-05-14T01:18:28.584Z,103347.17
2019-05-14T01:20:56.990Z,103350.75
2019-05-14T01:23:25.422Z,103350.81
2019-05-14T01:25:53.826Z,103359.20
2019-05-14T01:28:25.776Z,103354.27
2019-05-14T01:30:54.156Z,103353.14
2019-05-14T01:33:24.973Z,103357.02
2019-05-14T01:35:53.442Z,103352.22
2019-05-14T01:38:22.279Z,103354.56
2019-05-14T01:40:52.423Z,103352.25
2019-05-14T01:43:22.012Z,103352.58
2019-05-14T01:45:52.389Z,103355.01
2019-05-14T01:48:23.449Z,103354.35
2019-05-14T01:50:52.223Z,103353.88
2019-05-14T01:53:22.020Z,103357.84
2019-05-14T01:55:52.068Z,103356.91
2019-05-14T01:58:24.565Z,103367.47
2019-05-14T02:00:52.976Z,103364.64
2019-05-14T02:03:24.363Z,103364.64
2019-05-14T02:05:52.376Z,103359.63
2019-05-14T02:08:21.408Z,103358.09
2019-05-14T02:10:52.450Z,103364.03
2019-05-14T02:13:21.387Z,103360.22
2019-05-14T02:15:52.045Z,103356.91
2019-05-14T02:18:21.751Z,103357.20
2019-05-14T02:20:52.089Z,103357.61
2019-05-14T02:23:22.687Z,103353.65
2019-05-14T02:25:51.845Z,103354.38
2019-05-14T02:28:22.147Z,103350.28
2019-05-14T02:31:01.665Z,103357.39
2019-05-14T02:33:25.439Z,103351.97
2019-05-14T02:35:53.846Z,103351.45
2019-05-14T02:38:29.625Z,103358.25
2019-05-14T02:40:59.650Z,103353.89
2019-05-14T02:43:29.321Z,103359.31
2019-05-14T02:46:10.014Z,103355.30
2019-05-14T02:48:29.235Z,103353.23
2019-05-14T02:50:59.992Z,103352.88
2019-05-14T02:53:29.705Z,103348.11
2019-05-14T02:55:59.299Z,103348.71
2019-05-14T02:58:29.958Z,103346.48
2019-05-14T03:01:00.517Z,103343.69
2019-05-14T03:03:29.930Z,103342.98
2019-05-14T03:06:00.326Z,103337.61
2019-05-14T03:08:30.657Z,103335.95
2019-05-14T03:11:00.328Z,103337.27
2019-05-14T03:13:29.707Z,103341.89
2019-05-14T03:15:59.426Z,103342.20
2019-05-14T03:18:29.568Z,103336.29
2019-05-14T03:21:00.732Z,103341.13
2019-05-14T03:23:30.117Z,103348.39
2019-05-14T03:26:00.375Z,103346.02
2019-05-14T03:28:30.343Z,103342.37
2019-05-14T03:31:03.132Z,103342.65
2019-05-14T03:33:33.238Z,103347.72
2019-05-14T03:36:08.838Z,103339.09
2019-05-14T03:38:32.280Z,103336.47
2019-05-14T03:41:00.724Z,103338.43
2019-05-14T03:43:29.822Z,103338.19
2019-05-14T03:45:59.355Z,103347.13
2019-05-14T03:48:29.632Z,103349.47
2019-05-14T03:51:00.306Z,103352.69
2019-05-14T03:53:29.749Z,103347.52
2019-05-14T03:56:00.062Z,103350.97
2019-05-14T03:58:30.033Z,103351.37
2019-05-14T04:01:04.440Z,103348.15
2019-05-14T04:03:33.133Z,103350.14
2019-05-14T04:06:05.540Z,103352.10
2019-05-14T04:08:39.218Z,103353.83
2019-05-14T04:11:09.566Z,103354.56
2019-05-14T04:13:40.800Z,103357.11
2019-05-14T04:16:12.365Z,103354.97
2019-05-14T04:18:41.805Z,103354.27
2019-05-14T04:21:13.004Z,103357.69
2019-05-14T04:23:50.952Z,103356.00
2019-05-14T04:26:23.600Z,103359.08
2019-05-14T04:28:54.667Z,103359.41
2019-05-14T04:31:23.093Z,103359.58
2019-05-14T04:33:51.962Z,103360.38
2019-05-14T04:36:20.420Z,103362.77
2019-05-14T04:38:54.869Z,103365.20
2019-05-14T04:41:20.132Z,103360.45
2019-05-14T04:43:49.946Z,103361.05
2019-05-14T04:46:20.135Z,103356.37
2019-05-14T04:48:50.802Z,103350.88
2019-05-14T04:51:19.836Z,103353.06
2019-05-14T04:53:49.788Z,103352.78
2019-05-14T04:56:19.952Z,103356.59
2019-05-14T04:58:49.627Z,103360.80
2019-05-14T05:01:20.486Z,103358.26
2019-05-14T05:03:51.778Z,103356.16
2019-05-14T05:06:23.061Z,103349.32
2019-05-14T05:08:51.652Z,103348.63
2019-05-14T05:11:22.902Z,103342.82
2019-05-14T05:13:51.275Z,103345.00
2019-05-14T05:16:19.693Z,103342.52
2019-05-14T05:18:50.662Z,103342.78
2019-05-14T05:21:19.463Z,103337.56
2019-05-14T05:23:49.338Z,103334.80
2019-05-14T05:26:18.547Z,103342.53
2019-05-14T05:29:01.892Z,103339.92
2019-05-14T05:31:18.529Z,103340.23
2019-05-14T05:33:49.053Z,103342.02
2019-05-14T05:36:18.461Z,103345.20
2019-05-14T05:38:49.105Z,103344.28
2019-05-14T05:41:19.038Z,103345.98
2019-05-14T05:43:48.411Z,103349.58
2019-05-14T05:46:19.133Z,103344.31
2019-05-14T05:48:48.226Z,103344.20
2019-05-14T05:51:18.775Z,103346.49
2019-05-14T05:53:49.433Z,103342.82
2019-05-14T05:56:18.779Z,103344.03
2019-05-14T05:58:48.897Z,103344.72
2019-05-14T06:01:37.623Z,103345.31
2019-05-14T06:03:51.443Z,103344.86
2019-05-14T06:06:19.863Z,103344.19
2019-05-14T06:08:49.184Z,103348.62
2019-05-14T06:11:19.389Z,103347.97
2019-05-14T06:13:48.641Z,103348.30
2019-05-14T06:16:18.625Z,103346.02
2019-05-14T06:18:48.335Z,103341.26
2019-05-14T06:21:19.149Z,103334.09
2019-05-14T06:23:49.069Z,103332.45
2019-05-14T06:26:20.203Z,103330.87
2019-05-14T06:28:49.676Z,103324.30
2019-05-14T06:31:19.435Z,103328.26
2019-05-14T06:33:48.842Z,103326.59
2019-05-14T06:36:19.546Z,103324.34
2019-05-14T06:38:49.365Z,103325.04
2019-05-14T06:41:19.082Z,103320.59
2019-05-14T06:43:48.646Z,103317.09
2019-05-14T06:46:19.417Z,103315.23
2019-05-14T06:48:48.600Z,103322.48
2019-05-14T06:51:19.915Z,103320.73
2019-05-14T06:53:49.829Z,103321.95
2019-05-14T06:56:21.042Z,103322.17
2019-05-14T06:58:49.049Z,103327.69
2019-05-14T07:01:18.648Z,103333.20
2019-05-14T07:03:49.048Z,103330.09
2019-05-14T07:06:18.589Z,103328.59
2019-05-14T07:08:48.620Z,103339.84
2019-05-14T07:11:19.168Z,103338.13
2019-05-14T07:13:49.215Z,103329.08
2019-05-14T07:16:19.696Z,103329.91
2019-05-14T07:18:52.969Z,103331.05
2019-05-14T07:21:19.129Z,103328.58
2019-05-14T07:23:49.017Z,103321.56
2019-05-14T07:26:19.340Z,103318.17
2019-05-14T07:28:48.784Z,103322.37
2019-05-14T07:31:19.066Z,103316.40
2019-05-14T07:33:49.294Z,103322.63
2019-05-14T07:36:18.912Z,103321.25
2019-05-14T07:38:48.892Z,103315.77
2019-05-14T07:41:19.266Z,103322.31
2019-05-14T07:43:48.437Z,103319.75
2019-05-14T07:46:19.044Z,103322.84
2019-05-14T07:49:03.526Z,103321.36
2019-05-14T07:51:18.961Z,103314.28
2019-05-14T07:53:48.949Z,103317.69
2019-05-14T07:56:18.694Z,103315.00
2019-05-14T07:58:49.075Z,103320.27
2019-05-14T08:01:18.696Z,103316.06
2019-05-14T08:03:48.771Z,103318.45
2019-05-14T08:06:20.173Z,103325.30
2019-05-14T08:08:49.724Z,103318.28
2019-05-14T08:11:20.633Z,103314.90
2019-05-14T08:13:52.834Z,103310.14
2019-05-14T08:16:21.287Z,103313.06
2019-05-14T08:18:49.742Z,103307.30
2019-05-14T08:21:19.416Z,103316.27
2019-05-14T08:23:48.363Z,103314.30
2019-05-14T08:26:19.110Z,103309.91
2019-05-14T08:28:51.096Z,103305.53
2019-05-14T08:31:19.494Z,103302.00
2019-05-14T08:33:49.025Z,103304.45
2019-05-14T08:36:18.385Z,103299.73
2019-05-14T08:38:49.656Z,103294.83
2019-05-14T08:41:19.517Z,103284.63
2019-05-14T08:43:48.996Z,103286.39
2019-05-14T08:46:19.122Z,103288.09
2019-05-14T08:48:49.621Z,103288.90
2019-05-14T08:51:18.673Z,103289.34
2019-05-14T08:53:50.358Z,103288.14
2019-05-14T08:56:19.234Z,103290.20
2019-05-14T08:58:49.431Z,103290.03
2019-05-14T09:01:19.457Z,103287.91
2019-05-14T09:03:49.216Z,103289.27
2019-05-14T09:06:18.772Z,103277.16
2019-05-14T09:08:49.737Z,103283.55
2019-05-14T09:11:24.580Z,103277.70
2019-05-14T09:13:49.087Z,103275.13
2019-05-14T09:16:19.503Z,103269.28
2019-05-14T09:18:50.976Z,103270.87
2019-05-14T09:21:20.601Z,103280.77
2019-05-14T09:23:49.254Z,103270.87
2019-05-14T09:26:18.174Z,103269.29
2019-05-14T09:28:48.420Z,103263.67
2019-05-14T09:31:19.670Z,103261.25
2019-05-14T09:33:49.451Z,103268.98
2019-05-14T09:36:24.404Z,103259.89
2019-05-14T09:38:52.794Z,103259.89
2019-05-14T09:41:22.516Z,103268.38
2019-05-14T09:43:55.010Z,103263.48
2019-05-14T09:46:23.431Z,103263.39
2019-05-14T09:48:51.942Z,103256.61
2019-05-14T09:51:20.312Z,103253.71
2019-05-14T09:53:49.196Z,103255.41
2019-05-14T09:56:18.610Z,103254.49
2019-05-14T09:58:49.658Z,103259.20
2019-05-14T10:01:19.322Z,103262.69
2019-05-14T10:03:51.159Z,103258.44
2019-05-14T10:06:22.082Z,103247.84
2019-05-14T10:08:50.517Z,103244.44
2019-05-14T10:11:18.934Z,103250.88
2019-05-14T10:13:48.374Z,103238.94
2019-05-14T10:16:18.912Z,103234.49
2019-05-14T10:18:48.697Z,103231.09
2019-05-14T10:21:19.033Z,103239.15
2019-05-14T10:23:47.652Z,103234.34
2019-05-14T10:26:18.363Z,103226.95
2019-05-14T10:28:48.729Z,103225.80
2019-05-14T10:31:19.218Z,103222.98
2019-05-14T10:33:48.639Z,103230.92
2019-05-14T10:36:19.739Z,103224.36
2019-05-14T10:38:50.263Z,103214.01
2019-05-14T10:41:18.788Z,103204.14
2019-05-14T10:43:49.697Z,103209.79
2019-05-14T10:46:19.304Z,103211.17
2019-05-14T10:48:47.597Z,103212.13
2019-05-14T10:51:22.176Z,103208.12
2019-05-14T10:53:52.912Z,103200.74
2019-05-14T10:56:21.328Z,103202.34
2019-05-14T10:58:49.731Z,103205.28
2019-05-14T11:01:22.342Z,103201.84
2019-05-14T11:03:48.807Z,103204.45
2019-05-14T11:06:19.659Z,103200.30
2019-05-14T11:08:49.129Z,103206.15
2019-05-14T11:11:18.595Z,103202.30
2019-05-14T11:13:47.194Z,103192.86
2019-05-14T11:16:19.069Z,103194.93
2019-05-14T11:18:49.708Z,103190.89
2019-05-14T11:21:25.613Z,103194.12
2019-05-14T11:23:49.197Z,103187.41
2019-05-14T11:26:18.649Z,103189.87
2019-05-14T11:28:49.151Z,103186.20
2019-05-14T11:31:19.045Z,103175.19
2019-05-14T11:33:52.552Z,103178.40
2019-05-14T11:36:20.973Z,103181.61
2019-05-14T11:38:50.962Z,103176.42
2019-05-14T11:41:19.574Z,103176.54
2019-05-14T11:43:49.382Z,103173.99
2019-05-14T11:46:29.589Z,103174.17
2019-05-14T11:48:49.845Z,103159.92
2019-05-14T11:51:19.263Z,103170.89
2019-05-14T11:53:49.416Z,103167.65
2019-05-14T11:56:19.403Z,103159.05
2019-05-14T11:58:49.271Z,103149.91
2019-05-14T12:01:19.128Z,103136.22
2019-05-14T12:03:50.360Z,103132.90
2019-05-14T12:06:18.795Z,103140.39
2019-05-14T12:08:50.490Z,103144.59
2019-05-14T12:11:19.415Z,103139.70
2019-05-14T12:13:48.655Z,103150.77
2019-05-14T12:16:17.374Z,103132.48
2019-05-14T12:18:48.599Z,103117.68
2019-05-14T12:21:17.069Z,103122.20
2019-05-14T12:23:45.703Z,103120.04
2019-05-14T12:26:22.042Z,103117.41
2019-05-14T12:28:50.472Z,103130.98
2019-05-14T12:31:18.895Z,103113.85
2019-05-14T12:33:48.807Z,103123.16
2019-05-14T12:36:19.247Z,103116.04
2019-05-14T12:38:48.662Z,103112.20
2019-05-14T12:41:19.469Z,103107.47
2019-05-14T12:43:47.441Z,103109.26
2019-05-14T12:46:15.841Z,103097.07
2019-05-14T12:48:44.240Z,103114.17
2019-05-14T12:51:12.662Z,103097.06
2019-05-14T12:53:41.093Z,103100.11
2019-05-14T12:56:10.113Z,103096.44
2019-05-14T12:58:45.265Z,103093.88
2019-05-14T13:01:09.465Z,103087.25
2019-05-14T13:03:37.899Z,103092.17
2019-05-14T13:06:09.653Z,103096.37
2019-05-14T13:08:38.741Z,103091.50
2019-05-14T13:11:09.784Z,103091.05
2019-05-14T13:13:42.813Z,103090.14
2019-05-14T13:16:14.524Z,103085.17
2019-05-14T13:18:42.921Z,103077.25
2019-05-14T13:21:19.382Z,103075.62
2019-05-14T13:23:48.727Z,103075.96
2019-05-14T13:26:19.703Z,103075.50
2019-05-14T13:28:50.669Z,103061.32
2019-05-14T13:31:20.471Z,103066.25
2019-05-14T13:33:49.135Z,103070.41
2019-05-14T13:36:21.848Z,103064.96
2019-05-14T13:38:54.235Z,103062.70
2019-05-14T13:41:22.700Z,103054.86
2019-05-14T13:43:58.958Z,103050.98
2019-05-14T13:46:28.660Z,103054.86
2019-05-14T13:48:59.092Z,103064.70
2019-05-14T13:51:32.669Z,103051.75
2019-05-14T13:54:03.199Z,103033.80
2019-05-14T13:56:31.632Z,103037.99
2019-05-14T13:59:00.147Z,103033.61
2019-05-14T14:01:31.014Z,103026.98
2019-05-14T14:04:10.261Z,103030.31
2019-05-14T14:06:29.654Z,103025.67
2019-05-14T14:08:59.459Z,103031.69
2019-05-14T14:11:28.646Z,103030.50
2019-05-14T14:13:58.592Z,103025.64
2019-05-14T14:16:28.495Z,103024.59
2019-05-14T14:19:02.586Z,103022.50
2019-05-14T14:21:30.171Z,103026.52
2019-05-14T14:23:59.895Z,103037.27
2019-05-14T14:26:29.117Z,103032.80
2019-05-14T14:28:59.967Z,103032.25
2019-05-14T14:31:32.094Z,103028.27
2019-05-14T14:33:59.753Z,103027.84
2019-05-14T14:36:29.851Z,103022.97
2019-05-14T14:38:58.817Z,103021.93
2019-05-14T14:41:28.425Z,103015.13
2019-05-14T14:43:56.955Z,103011.91
2019-05-14T14:46:25.369Z,103016.84
2019-05-14T14:48:57.547Z,103012.67
2019-05-14T14:51:23.967Z,103007.58
2019-05-14T14:53:59.738Z,103010.65
2019-05-14T14:56:22.506Z,103012.45
2019-05-14T14:58:50.907Z,103007.29
2019-05-14T15:01:20.052Z,103006.18
2019-05-14T15:03:49.596Z,103008.02
2019-05-14T15:06:19.099Z,103013.84
2019-05-14T15:08:49.711Z,103012.50
2019-05-14T15:11:20.519Z,103007.23
2019-05-14T15:13:54.970Z,103013.78
2019-05-14T15:16:29.159Z,103014.50
2019-05-14T15:18:58.341Z,103001.36
2019-05-14T15:21:29.730Z,103004.97
2019-05-14T15:24:09.460Z,103012.50
2019-05-14T15:26:28.838Z,103006.72
2019-05-14T15:28:59.062Z,102999.09
2019-05-14T15:31:29.235Z,102999.61
2019-05-14T15:34:03.695Z,102997.02
2019-05-14T15:36:32.083Z,103001.88
2019-05-14T15:39:00.495Z,102995.52
2019-05-14T15:41:29.740Z,102992.41
2019-05-14T15:43:58.872Z,103002.94
2019-05-14T15:46:27.468Z,102991.83
2019-05-14T15:48:55.864Z,102990.52
2019-05-14T15:51:24.430Z,102989.73
2019-05-14T15:54:11.591Z,102991.66
2019-05-14T15:56:29.856Z,102990.62
2019-05-14T15:59:01.421Z,102983.22
2019-05-14T16:01:32.460Z,102984.99
2019-05-14T16:04:00.858Z,102980.99
2019-05-14T16:06:29.446Z,102984.44
2019-05-14T16:09:07.179Z,102977.95
2019-05-14T16:11:39.347Z,102970.05
2019-05-14T16:14:10.315Z,102959.02
2019-05-14T16:16:39.307Z,102966.38
2019-05-14T16:19:08.612Z,102964.19
2019-05-14T16:21:40.003Z,102582.06
2019-05-14T16:24:12.302Z,102960.31
2019-05-14T16:26:40.852Z,102928.98
2019-05-14T16:29:10.128Z,102947.90
2019-05-14T16:31:43.247Z,102950.08
2019-05-14T16:34:10.595Z,102952.70
2019-05-14T16:36:41.344Z,102949.27
2019-05-14T16:39:14.100Z,102943.12
2019-05-14T16:41:43.640Z,102947.78
2019-05-14T16:44:12.063Z,102947.27
2019-05-14T16:46:42.983Z,102947.34
2019-05-14T16:49:11.409Z,102949.06
2019-05-14T16:51:40.085Z,102949.11
2019-05-14T16:54:08.842Z,102949.09
2019-05-14T16:56:41.069Z,102563.27
2019-05-14T16:59:10.663Z,102939.02
2019-05-14T17:01:39.375Z,102949.53
2019-05-14T17:04:09.395Z,102942.15
2019-05-14T17:06:40.711Z,102897.58
2019-05-14T17:09:10.227Z,102949.75
2019-05-14T17:11:53.630Z,102940.14
2019-05-14T17:14:24.328Z,102942.05
2019-05-14T17:16:52.880Z,102942.25
2019-05-14T17:19:25.290Z,102941.38
2019-05-14T17:21:56.227Z,102944.86
2019-05-14T17:24:29.115Z,102941.16
2019-05-14T17:27:08.807Z,102943.16
2019-05-14T17:29:38.881Z,102938.66
2019-05-14T17:32:07.490Z,102941.20
2019-05-14T17:34:44.351Z,102934.31
2019-05-14T17:37:23.765Z,102934.31
2019-05-14T17:39:58.100Z,102936.95
2019-05-14T17:42:28.329Z,102940.41
2019-05-14T17:44:58.509Z,102935.39
2019-05-14T17:47:30.056Z,102936.30
2019-05-14T17:49:59.551Z,102937.92
2019-05-14T17:52:30.256Z,102929.62
2019-05-14T17:54:58.769Z,102929.66
2019-05-14T17:57:34.712Z,102940.32
2019-05-14T18:00:01.585Z,102921.80
2019-05-14T18:02:48.919Z,102920.70
2019-05-14T18:05:18.605Z,102927.73
2019-05-14T18:07:51.079Z,102924.83
2019-05-14T18:10:19.715Z,102929.83
2019-05-14T18:12:48.494Z,102920.19
2019-05-14T18:15:17.178Z,102918.61
2019-05-14T18:17:49.557Z,102919.94
2019-05-14T18:20:18.244Z,102920.34
2019-05-14T18:22:48.639Z,102911.30
2019-05-14T18:25:18.317Z,102910.33
2019-05-14T18:27:49.692Z,102915.10
2019-05-14T18:30:19.124Z,102911.98
2019-05-14T18:32:48.734Z,102907.66
2019-05-14T18:35:44.020Z,102910.47
2019-05-14T18:38:19.304Z,102905.23
2019-05-14T18:40:50.852Z,102899.33
2019-05-14T18:43:19.287Z,102902.47
2019-05-14T18:45:48.183Z,102907.83
2019-05-14T18:48:19.413Z,102907.95
2019-05-14T18:50:48.520Z,102901.73
2019-05-14T18:53:19.078Z,102904.74
2019-05-14T18:55:48.986Z,102913.17
2019-05-14T18:58:19.493Z,102905.72
2019-05-14T19:00:48.677Z,102908.95
2019-05-14T19:03:22.143Z,102902.36
2019-05-14T19:05:50.611Z,102898.20
2019-05-14T19:08:22.172Z,102902.31
2019-05-14T19:10:52.907Z,102904.78
2019-05-14T19:13:21.362Z,102905.83
2019-05-14T19:15:49.773Z,102898.63
2019-05-14T19:18:19.367Z,102901.79
2019-05-14T19:20:48.617Z,102905.00
2019-05-14T19:23:18.747Z,102902.02
2019-05-14T19:25:48.367Z,102907.67
2019-05-14T19:28:18.722Z,102911.30
2019-05-14T19:30:56.300Z,102916.58
2019-05-14T19:33:24.699Z,102909.84
2019-05-14T19:35:53.084Z,102914.16
2019-05-14T19:38:21.553Z,102914.95
2019-05-14T19:40:50.003Z,102915.94
2019-05-14T19:43:19.358Z,102920.18
2019-05-14T19:45:48.524Z,102922.23
2019-05-14T19:48:18.915Z,102916.55
2019-05-14T19:50:49.079Z,102924.58
2019-05-14T19:53:17.727Z,102925.02
2019-05-14T19:55:48.832Z,102921.56
2019-05-14T19:58:20.184Z,102924.94
2019-05-14T20:00:49.628Z,102919.78
2019-05-14T20:03:20.005Z,102925.91
2019-05-14T20:05:48.437Z,102929.14
2019-05-14T20:08:18.975Z,102929.69
2019-05-14T20:10:48.996Z,102921.36
2019-05-14T20:13:20.818Z,102922.72
2019-05-14T20:15:48.847Z,102920.34
2019-05-14T20:18:19.738Z,102919.78
2019-05-14T20:20:51.892Z,102923.28
2019-05-14T20:23:20.652Z,102915.14
2019-05-14T20:25:49.054Z,102909.84
2019-05-14T20:28:19.008Z,102911.19
2019-05-14T20:30:49.172Z,102910.22
2019-05-14T20:33:19.177Z,102904.73
2019-05-14T20:35:48.552Z,102908.62
2019-05-14T20:38:18.525Z,102900.87
2019-05-14T20:40:48.715Z,102906.70
2019-05-14T20:43:18.436Z,102903.02
2019-05-14T20:45:48.839Z,102909.86
2019-05-14T20:48:18.961Z,102907.69
2019-05-14T20:50:48.144Z,102909.78
2019-05-14T20:53:20.449Z,102910.90
2019-05-14T20:55:48.132Z,102908.73
2019-05-14T20:58:19.944Z,102906.81
2019-05-14T21:00:48.642Z,102907.97
2019-05-14T21:03:19.386Z,102908.73
2019-05-14T21:05:49.081Z,102909.66
2019-05-14T21:08:18.848Z,102908.05
2019-05-14T21:10:49.445Z,102911.23
2019-05-14T21:13:18.281Z,102910.20
2019-05-14T21:15:48.275Z,102912.19
2019-05-14T21:18:18.952Z,102902.34
2019-05-14T21:20:52.478Z,102907.70
2019-05-14T21:23:22.038Z,102910.17
2019-05-14T21:25:54.313Z,102900.67
2019-05-14T21:28:25.315Z,102898.63
2019-05-14T21:30:53.829Z,102899.34
2019-05-14T21:33:28.405Z,102898.61
2019-05-14T21:35:59.131Z,102896.12
2019-05-14T21:38:28.632Z,102893.84
2019-05-14T21:40:58.289Z,102896.86
2019-05-14T21:43:29.094Z,102893.19
2019-05-14T21:45:58.643Z,102898.94
2019-05-14T21:48:28.870Z,102888.96
2019-05-14T21:51:00.576Z,102885.16
2019-05-14T21:53:27.745Z,102889.79
2019-05-14T21:55:58.580Z,102891.36
2019-05-14T21:58:29.122Z,102885.78
2019-05-14T22:00:59.234Z,102884.97
2019-05-14T22:03:28.462Z,102887.17
2019-05-14T22:05:59.204Z,102882.66
2019-05-14T22:08:31.323Z,102885.26
2019-05-14T22:10:59.954Z,102883.13
2019-05-14T22:13:28.544Z,102882.27
2019-05-14T22:15:58.922Z,102881.88
2019-05-14T22:18:27.960Z,102881.80
2019-05-14T22:20:58.005Z,102878.52
2019-05-14T22:23:29.048Z,102882.20
2019-05-14T22:25:58.332Z,102874.50
2019-05-14T22:28:28.821Z,102879.34
2019-05-14T22:30:58.720Z,102876.42
2019-05-14T22:33:28.443Z,102875.97
2019-05-14T22:35:58.082Z,102870.48
2019-05-14T22:38:30.328Z,102871.66
2019-05-14T22:40:59.177Z,102875.50
2019-05-14T22:43:28.794Z,102872.31
2019-05-14T22:45:59.080Z,102869.22
2019-05-14T22:48:27.643Z,102869.37
2019-05-14T22:50:56.187Z,102866.44
2019-05-14T22:53:24.700Z,102869.31
2019-05-14T22:55:53.208Z,102863.11
2019-05-14T22:58:26.073Z,102859.30
2019-05-14T23:01:07.179Z,102854.64
2019-05-14T23:03:24.970Z,102862.64
2019-05-14T23:05:53.491Z,102860.17
2019-05-14T23:08:22.003Z,102852.25
2019-05-14T23:10:50.498Z,102856.42
2019-05-14T23:13:18.998Z,102853.94
2019-05-14T23:15:48.116Z,102856.36
2019-05-14T23:18:18.220Z,102858.70
2019-05-14T23:20:49.140Z,102854.95
2019-05-14T23:23:19.704Z,102851.55
2019-05-14T23:25:48.275Z,102856.84
2019-05-14T23:28:19.057Z,102857.59
2019-05-14T23:30:48.165Z,102852.91
2019-05-14T23:33:19.056Z,102853.55
2019-05-14T23:36:09.182Z,102847.66
2019-05-14T23:38:38.854Z,102850.13
2019-05-14T23:41:09.614Z,102849.69
2019-05-14T23:43:39.091Z,102848.11
2019-05-14T23:46:09.296Z,102846.09
2019-05-14T23:48:39.224Z,102838.96
2019-05-14T23:51:08.243Z,102838.01
2019-05-14T23:53:39.099Z,102838.17
2019-05-14T23:56:08.552Z,102840.45
2019-05-14T23:58:37.451Z,102831.97
